Time;durP1;ratioP1;P1;durP2;ratioP2;P2;SDS_P1;SDS_P2;PMS_P1;PMS_P2;Temp;Humidity;BMP_temperature;BMP_pressure;BME280_temperature;BME280_humidity;BME280_pressure;Samples;Min_cycle;Max_cycle;Signal;HPM_P1;HPM_P2
2021/01/03 00:01:15;;;;;;;8.98;2.83;;;7.40;57.30;;;;;;5067477;28;19916;-66
2021/01/03 00:03:41;;;;;;;6.80;2.80;;;7.40;57.20;;;;;;5085461;28;20749;-67
2021/01/03 00:06:08;;;;;;;5.25;2.35;;;7.40;57.00;;;;;;5085641;28;20036;-67
2021/01/03 00:08:35;;;;;;;5.78;3.17;;;7.50;55.90;;;;;;5084895;28;20040;-66
2021/01/03 00:11:00;;;;;;;4.72;2.42;;;7.60;55.90;;;;;;5085139;28;20036;-67
2021/01/03 00:13:26;;;;;;;;;;;7.60;56.00;;;;;;5066805;28;20109;-67
2021/01/03 00:15:51;;;;;;;6.78;2.53;;;7.60;56.10;;;;;;5085579;28;19920;-67
2021/01/03 00:18:17;;;;;;;;;;;7.70;55.60;;;;;;5085890;28;20039;-67
2021/01/03 00:20:42;;;;;;;7.63;3.03;;;7.70;55.30;;;;;;5084888;28;19916;-66
2021/01/03 00:23:08;;;;;;;;;;;7.70;55.40;;;;;;5084449;28;20060;-68
2021/01/03 00:25:33;;;;;;;5.68;2.83;;;7.70;55.60;;;;;;5084919;28;19920;-67
2021/01/03 00:27:59;;;;;;;5.65;2.22;;;7.70;55.50;;;;;;5084864;28;20087;-67
2021/01/03 00:30:26;;;;;;;;;;;7.70;54.90;;;;;;5082043;28;20606;-66
2021/01/03 00:32:53;;;;;;;6.45;2.75;;;7.70;55.00;;;;;;5085268;28;20166;-67
2021/01/03 00:35:25;;;;;;;7.43;2.72;;;7.70;55.50;;;;;;5084792;28;20052;-67
2021/01/03 00:37:50;;;;;;;6.00;2.58;;;7.70;55.30;;;;;;5085282;28;20131;-67
2021/01/03 00:40:17;;;;;;;;;;;7.70;55.60;;;;;;5085796;28;20040;-67
2021/01/03 00:42:43;;;;;;;7.60;2.90;;;7.60;55.40;;;;;;5084530;28;19983;-67
2021/01/03 00:45:09;;;;;;;;;;;7.50;55.70;;;;;;5085457;28;20067;-67
2021/01/03 00:47:35;;;;;;;10.25;3.50;;;7.60;55.60;;;;;;5084876;28;19916;-68
2021/01/03 00:50:02;;;;;;;5.20;2.92;;;7.60;56.40;;;;;;5081865;28;20047;-67
2021/01/03 00:52:28;;;;;;;9.40;2.92;;;7.60;55.70;;;;;;5084969;28;20044;-67
2021/01/03 00:54:53;;;;;;;;;;;7.60;55.50;;;;;;5084936;28;20046;-67
2021/01/03 00:57:19;;;;;;;7.03;2.58;;;7.60;54.90;;;;;;5084685;28;20386;-66
2021/01/03 00:59:45;;;;;;;5.75;2.22;;;7.60;55.40;;;;;;5084753;28;20036;-66
2021/01/03 01:02:10;;;;;;;;;;;7.50;55.40;;;;;;5085427;28;20594;-67
2021/01/03 01:04:36;;;;;;;6.20;2.13;;;7.50;55.60;;;;;;5083832;28;19931;-68
2021/01/03 01:07:01;;;;;;;5.43;2.47;;;7.50;55.80;;;;;;5084991;28;20423;-67
2021/01/03 01:09:27;;;;;;;;;;;7.40;56.00;;;;;;5082095;28;20047;-66
2021/01/03 01:11:53;;;;;;;10.82;2.83;;;7.30;56.10;;;;;;5084267;28;19916;-66
2021/01/03 01:14:20;;;;;;;8.65;3.05;;;7.30;56.10;;;;;;5084918;28;20492;-66
2021/01/03 01:16:45;;;;;;;7.07;2.53;;;7.30;56.40;;;;;;5081813;28;20040;-65
2021/01/03 01:19:11;;;;;;;;;;;7.20;56.30;;;;;;5084917;28;20051;-65
2021/01/03 01:21:37;;;;;;;5.40;2.40;;;7.30;56.10;;;;;;5083794;28;19920;-65
2021/01/03 01:24:02;;;;;;;;;;;7.30;56.20;;;;;;5070529;28;20492;-67
2021/01/03 01:26:28;;;;;;;8.02;2.78;;;7.30;56.10;;;;;;5088228;28;20413;-66
2021/01/03 01:28:53;;;;;;;;;;;7.20;56.80;;;;;;5088465;28;20700;-67
2021/01/03 01:31:19;;;;;;;8.23;2.60;;;7.20;55.90;;;;;;5088035;28;20028;-67
2021/01/03 01:33:45;;;;;;;6.43;2.65;;;7.20;55.70;;;;;;5070324;28;20496;-66
2021/01/03 01:36:10;;;;;;;;;;;7.20;56.10;;;;;;5088983;28;20039;-66
2021/01/03 01:38:36;;;;;;;7.63;2.95;;;7.20;55.80;;;;;;5085173;28;19912;-66
2021/01/03 01:41:01;;;;;;;;;;;7.10;56.00;;;;;;5086707;28;20048;-66
2021/01/03 01:43:27;;;;;;;6.47;2.95;;;7.10;55.80;;;;;;5069542;28;19912;-66
2021/01/03 01:45:53;;;;;;;;;;;7.10;56.00;;;;;;5088232;28;20790;-65
2021/01/03 01:48:22;;;;;;;7.20;3.17;;;7.10;55.50;;;;;;5087832;28;19916;-67
2021/01/03 01:50:59;;;;;;;9.10;3.30;;;7.00;55.70;;;;;;5088070;28;20043;-66
2021/01/03 01:54:00;;;;;;;7.68;2.95;;;7.00;55.60;;;;;;5069076;28;20044;-66
2021/01/03 01:56:46;;;;;;;5.07;2.45;;;7.00;55.90;;;;;;5086019;28;20508;-66
2021/01/03 01:59:17;;;;;;;7.38;2.60;;;7.00;55.90;;;;;;5087428;28;20044;-68
2021/01/03 02:02:08;;;;;;;9.23;2.80;;;6.90;56.10;;;;;;5085714;28;20047;-66
2021/01/03 02:04:48;;;;;;;8.98;2.53;;;6.90;56.40;;;;;;5084166;28;20438;-66
2021/01/03 02:08:00;;;;;;;6.60;2.78;;;6.80;56.30;;;;;;5087179;28;20024;-67
2021/01/03 02:10:37;;;;;;;7.10;3.20;;;6.80;56.50;;;;;;5076179;28;20139;-67
2021/01/03 02:13:19;;;;;;;6.07;2.90;;;6.70;57.10;;;;;;5087347;28;20504;-67
2021/01/03 02:15:46;;;;;;;8.07;3.63;;;6.70;57.00;;;;;;5087207;28;20131;-67
2021/01/03 02:18:13;;;;;;;7.70;4.05;;;6.60;57.40;;;;;;5087320;28;20543;-67
2021/01/03 02:20:54;;;;;;;7.53;2.75;;;6.40;57.90;;;;;;5087667;28;20114;-67
2021/01/03 02:23:36;;;;;;;7.70;3.30;;;6.40;58.20;;;;;;5087381;28;20040;-67
2021/01/03 02:26:03;;;;;;;6.25;2.55;;;6.40;58.10;;;;;;5082762;28;20056;-67
2021/01/03 02:28:34;;;;;;;8.77;2.95;;;6.50;57.30;;;;;;5087346;28;20081;-66
2021/01/03 02:31:01;;;;;;;6.22;2.78;;;6.50;57.30;;;;;;5059371;28;20041;-67
2021/01/03 02:33:41;;;;;;;7.53;3.13;;;6.50;57.30;;;;;;5068724;28;20496;-67
2021/01/03 02:36:27;;;;;;;8.18;3.20;;;6.50;57.40;;;;;;5087289;28;20123;-66
2021/01/03 02:39:16;;;;;;;7.22;2.88;;;6.50;57.20;;;;;;5068548;28;20032;-66
2021/01/03 02:41:42;;;;;;;7.90;2.97;;;6.50;57.40;;;;;;5086623;28;20050;-66
2021/01/03 02:44:07;;;;;;;;;;;6.40;57.70;;;;;;5086521;28;20036;-67
2021/01/03 02:46:37;;;;;;;7.60;2.78;;;6.40;57.50;;;;;;5086948;28;20380;-64
2021/01/03 02:49:07;;;;;;;9.88;3.00;;;6.50;57.40;;;;;;5086456;28;20036;-67
2021/01/03 02:51:35;;;;;;;6.18;2.45;;;6.50;56.90;;;;;;5086528;28;20043;-66
2021/01/03 02:54:00;;;;;;;7.57;2.88;;;6.50;56.70;;;;;;5068693;28;20036;-67
2021/01/03 02:56:26;;;;;;;;;;;6.60;56.60;;;;;;5068297;28;20036;-66
2021/01/03 02:58:52;;;;;;;5.85;2.92;;;6.50;56.80;;;;;;5086316;28;19981;-67
2021/01/03 03:01:17;;;;;;;7.35;3.13;;;6.40;57.20;;;;;;5086288;28;20158;-66
2021/01/03 03:03:43;;;;;;;;;;;6.50;56.90;;;;;;5084195;28;20525;-66
2021/01/03 03:06:08;;;;;;;9.98;2.75;;;6.50;56.90;;;;;;5086590;28;19920;-68
2021/01/03 03:08:34;;;;;;;;;;;6.50;56.70;;;;;;5087148;28;20139;-67
2021/01/03 03:10:59;;;;;;;9.35;3.42;;;6.50;56.80;;;;;;5085845;28;20347;-68
2021/01/03 03:13:25;;;;;;;5.38;2.75;;;6.50;56.20;;;;;;5086278;28;20135;-66
2021/01/03 03:15:50;;;;;;;;;;;6.50;56.40;;;;;;5086918;28;20886;-66
2021/01/03 03:18:16;;;;;;;12.00;2.97;;;6.60;55.80;;;;;;5086556;28;20269;-67
2021/01/03 03:20:42;;;;;;;;;;;6.70;55.50;;;;;;5084827;28;20151;-66
2021/01/03 03:23:08;;;;;;;8.75;3.85;;;6.70;55.50;;;;;;5085846;28;20281;-67
2021/01/03 03:25:33;;;;;;;;;;;6.70;54.90;;;;;;5067674;28;20063;-66
2021/01/03 03:27:59;;;;;;;11.05;5.22;;;6.60;56.30;;;;;;5086215;28;19981;-67
2021/01/03 03:30:25;;;;;;;;;;;6.50;56.60;;;;;;5082264;28;20520;-68
2021/01/03 03:32:53;;;;;;;5.32;3.42;;;6.40;57.50;;;;;;5083246;28;20403;-67
2021/01/03 03:35:24;;;;;;;9.07;3.60;;;6.70;56.30;;;;;;5082865;28;20208;-67
2021/01/03 03:37:51;;;;;;;8.32;4.28;;;6.60;56.90;;;;;;5084255;28;20728;-67
2021/01/03 03:40:16;;;;;;;8.13;4.88;;;6.40;57.10;;;;;;5083464;28;20032;-68
2021/01/03 03:42:42;;;;;;;;;;;6.30;58.00;;;;;;5068331;28;20393;-66
2021/01/03 03:45:09;;;;;;;7.35;3.40;;;6.20;58.50;;;;;;5085336;28;19916;-67
2021/01/03 03:47:35;;;;;;;5.88;2.95;;;6.10;58.80;;;;;;5085404;28;20038;-67
2021/01/03 03:50:02;;;;;;;;;;;6.10;58.80;;;;;;5086393;28;20075;-66
2021/01/03 03:52:28;;;;;;;6.70;3.60;;;6.10;58.90;;;;;;5085512;28;20054;-67
2021/01/03 03:54:53;;;;;;;;;;;6.10;58.70;;;;;;5086463;28;20495;-66
2021/01/03 03:57:19;;;;;;;10.50;3.45;;;6.20;58.10;;;;;;5083111;28;19931;-65
2021/01/03 03:59:44;;;;;;;7.10;3.85;;;6.10;58.70;;;;;;5085190;28;20071;-66
2021/01/03 04:02:10;;;;;;;;;;;6.10;59.00;;;;;;5086226;28;20040;-67
2021/01/03 04:04:37;;;;;;;6.97;3.78;;;6.20;58.50;;;;;;5085804;28;19919;-67
2021/01/03 04:07:03;;;;;;;8.90;4.00;;;6.20;57.60;;;;;;5085492;28;20093;-66
2021/01/03 04:09:29;;;;;;;7.50;3.72;;;6.10;58.30;;;;;;5084926;28;20119;-67
2021/01/03 04:11:54;;;;;;;;;;;6.10;58.40;;;;;;5083242;28;20614;-66
2021/01/03 04:14:23;;;;;;;7.50;2.63;;;6.10;58.00;;;;;;5083175;28;20015;-66
2021/01/03 04:16:59;;;;;;;5.97;3.20;;;6.20;57.90;;;;;;5085512;28;20153;-66
2021/01/03 04:19:26;;;;;;;6.47;3.92;;;6.30;57.90;;;;;;5084807;28;20044;-67
2021/01/03 04:22:01;;;;;;;8.48;3.50;;;6.20;58.20;;;;;;5065282;28;20036;-66
2021/01/03 04:24:28;;;;;;;5.88;2.85;;;6.20;58.40;;;;;;5081750;28;20028;-66
2021/01/03 04:26:59;;;;;;;7.28;2.97;;;6.30;57.80;;;;;;5084320;28;20074;-66
2021/01/03 04:29:25;;;;;;;5.65;2.83;;;6.40;57.60;;;;;;5085178;28;20081;-67
2021/01/03 04:31:54;;;;;;;;;;;6.40;57.50;;;;;;5085492;28;20575;-66
2021/01/03 04:34:20;;;;;;;6.50;2.78;;;6.40;57.30;;;;;;5079740;28;20790;-66
2021/01/03 04:36:50;;;;;;;;;;;6.70;56.80;;;;;;5085390;28;20067;-66
2021/01/03 04:39:16;;;;;;;7.85;2.13;;;6.60;56.60;;;;;;5084828;28;19916;-67
2021/01/03 04:41:42;;;;;;;5.97;2.83;;;6.50;57.00;;;;;;5081820;28;20055;-67
2021/01/03 04:44:14;;;;;;;;;;;6.60;56.30;;;;;;5068041;28;20453;-67
2021/01/03 04:46:40;;;;;;;5.88;2.58;;;6.50;56.70;;;;;;5084987;28;19920;-67
2021/01/03 04:49:15;;;;;;;6.88;2.75;;;6.50;56.30;;;;;;5082183;28;20047;-67
2021/01/03 04:52:26;;;;;;;7.20;2.85;;;6.50;57.00;;;;;;5083014;28;20043;-67
2021/01/03 04:55:10;;;;;;;5.95;2.88;;;6.40;57.70;;;;;;5060832;28;20094;-67
2021/01/03 04:57:54;;;;;;;6.18;2.42;;;6.80;56.60;;;;;;5084857;28;20113;-66
2021/01/03 05:00:23;;;;;;;5.38;1.95;;;6.80;56.00;;;;;;5086471;28;20048;-67
2021/01/03 05:03:16;;;;;;;5.10;2.50;;;6.90;55.40;;;;;;5088918;28;20507;-67
2021/01/03 05:05:52;;;;;;;4.97;2.42;;;6.90;55.50;;;;;;5088481;28;20043;-67
2021/01/03 05:08:40;;;;;;;7.27;2.60;;;6.90;55.50;;;;;;5089008;28;20050;-67
2021/01/03 05:11:14;;;;;;;6.72;3.40;;;6.80;55.40;;;;;;5087625;28;20044;-67
2021/01/03 05:13:49;;;;;;;7.47;2.97;;;6.80;55.70;;;;;;5084292;28;20040;-67
2021/01/03 05:16:17;;;;;;;7.75;2.80;;;6.90;55.50;;;;;;5084654;28;20535;-66
2021/01/03 05:18:43;;;;;;;9.32;3.30;;;6.90;55.40;;;;;;5088364;28;20040;-66
2021/01/03 05:21:09;;;;;;;5.45;2.45;;;6.90;55.40;;;;;;5088471;28;20416;-68
2021/01/03 05:23:35;;;;;;;;;;;6.90;55.30;;;;;;5089150;28;20040;-67
2021/01/03 05:26:04;;;;;;;6.32;2.50;;;6.80;55.80;;;;;;5087492;28;19963;-67
2021/01/03 05:28:33;;;;;;;8.82;3.85;;;6.80;55.80;;;;;;5088575;28;20131;-66
2021/01/03 05:31:19;;;;;;;6.55;4.10;;;6.70;56.30;;;;;;5088596;28;20128;-67
2021/01/03 05:33:49;;;;;;;7.25;3.53;;;6.60;57.10;;;;;;5085483;28;20528;-66
2021/01/03 05:36:32;;;;;;;8.40;4.32;;;6.50;57.50;;;;;;5086791;28;20039;-65
2021/01/03 05:38:58;;;;;;;7.05;3.35;;;6.50;57.80;;;;;;5064228;28;20038;-66
2021/01/03 05:41:47;;;;;;;6.28;3.20;;;6.60;57.60;;;;;;5085276;28;20039;-65
2021/01/03 05:44:28;;;;;;;11.55;4.43;;;6.70;57.30;;;;;;5047159;28;20995;-66
2021/01/03 05:47:12;;;;;;;6.75;3.22;;;6.60;57.70;;;;;;5082452;28;20047;-67
2021/01/03 05:49:37;;;;;;;7.00;3.08;;;6.50;57.70;;;;;;5083814;28;20160;-67
2021/01/03 05:52:06;;;;;;;;;;;6.60;57.70;;;;;;5087721;28;20040;-67
2021/01/03 05:54:35;;;;;;;5.63;2.63;;;6.80;57.20;;;;;;5083569;28;19969;-67
2021/01/03 05:57:17;;;;;;;6.95;2.63;;;6.90;56.60;;;;;;5087963;28;20066;-67
2021/01/03 05:59:45;;;;;;;6.97;3.00;;;6.90;56.60;;;;;;5085551;28;20404;-67
2021/01/03 06:02:26;;;;;;;7.78;2.95;;;7.00;56.40;;;;;;5069544;28;20048;-67
2021/01/03 06:05:04;;;;;;;9.57;3.15;;;6.70;57.10;;;;;;5082400;28;20577;-67
2021/01/03 06:07:31;;;;;;;5.65;3.22;;;6.60;57.30;;;;;;5083882;28;20052;-68
2021/01/03 06:09:57;;;;;;;8.07;3.60;;;6.50;57.70;;;;;;5085698;28;20051;-67
2021/01/03 06:12:24;;;;;;;;;;;6.40;58.20;;;;;;5083404;28;20043;-65
2021/01/03 06:14:56;;;;;;;6.15;3.40;;;6.40;57.80;;;;;;5065040;28;20419;-64
2021/01/03 06:17:33;;;;;;;6.00;2.80;;;6.50;57.80;;;;;;5081036;28;20036;-67
2021/01/03 06:20:05;;;;;;;6.80;2.75;;;6.50;58.00;;;;;;5083428;28;20040;-66
2021/01/03 06:22:39;;;;;;;9.63;3.33;;;6.60;57.80;;;;;;5084838;28;20040;-67
2021/01/03 06:25:42;;;;;;;6.03;3.60;;;6.60;58.20;;;;;;5081071;28;20047;-68
2021/01/03 06:28:26;;;;;;;7.35;3.72;;;6.70;57.70;;;;;;5081200;28;20052;-67
2021/01/03 06:31:29;;;;;;;6.80;4.10;;;6.70;57.80;;;;;;5081462;28;20040;-67
2021/01/03 06:34:37;;;;;;;7.38;3.58;;;6.80;58.10;;;;;;5086852;28;20040;-67
2021/01/03 06:37:06;;;;;;;15.15;3.70;;;6.90;57.60;;;;;;5065436;28;20055;-66
2021/01/03 06:39:50;;;;;;;10.32;5.28;;;7.00;57.30;;;;;;5068360;28;20040;-68
2021/01/03 06:42:43;;;;;;;11.70;7.15;;;6.90;57.90;;;;;;5087122;28;20127;-67
2021/01/03 06:45:27;;;;;;;12.43;7.28;;;6.70;58.80;;;;;;5068639;28;20028;-69
2021/01/03 06:48:30;;;;;;;20.05;10.68;;;6.80;58.80;;;;;;5087139;28;20036;-67
2021/01/03 06:51:21;;;;;;;11.93;5.75;;;6.80;58.50;;;;;;5086859;28;20043;-67
2021/01/03 06:54:08;;;;;;;11.63;6.10;;;7.00;58.20;;;;;;5086367;28;20046;-67
2021/01/03 06:56:58;;;;;;;8.25;4.35;;;7.00;58.00;;;;;;5084679;28;20036;-67
2021/01/03 06:59:57;;;;;;;8.63;3.97;;;7.00;58.10;;;;;;5086609;28;20047;-66
2021/01/03 07:02:24;;;;;;;6.57;3.70;;;7.00;57.90;;;;;;5065845;28;20382;-67
2021/01/03 07:04:50;;;;;;;7.50;4.05;;;6.90;58.20;;;;;;5068384;28;20241;-65
2021/01/03 07:07:18;;;;;;;;;;;6.90;58.40;;;;;;5068161;28;20420;-65
2021/01/03 07:10:29;;;;;;;8.98;4.57;;;6.90;57.90;;;;;;5067834;28;19924;-65
2021/01/03 07:12:55;;;;;;;8.30;4.38;;;6.70;58.90;;;;;;5003898;28;20046;-67
2021/01/03 07:15:27;;;;;;;29.30;13.05;;;6.60;59.40;;;;;;5074988;28;20237;-66
2021/01/03 07:17:55;;;;;;;16.02;6.93;;;6.50;60.00;;;;;;5065362;28;20028;-67
2021/01/03 07:20:35;;;;;;;12.50;5.78;;;6.40;60.50;;;;;;5085200;28;20036;-67
2021/01/03 07:23:15;;;;;;;18.77;8.55;;;6.40;61.40;;;;;;5085535;28;20032;-66
2021/01/03 07:26:01;;;;;;;11.15;4.88;;;6.40;62.50;;;;;;5086161;28;20048;-67
2021/01/03 07:28:30;;;;;;;13.48;5.13;;;6.50;60.80;;;;;;5067896;28;20039;-66
2021/01/03 07:31:33;;;;;;;8.57;4.95;;;6.40;60.90;;;;;;5086507;28;20071;-67
2021/01/03 07:34:26;;;;;;;8.38;4.45;;;6.40;60.90;;;;;;5040958;28;20055;-67
2021/01/03 07:36:54;;;;;;;8.80;4.57;;;6.40;61.10;;;;;;5084136;28;20044;-67
2021/01/03 07:39:28;;;;;;;13.90;3.55;;;6.40;61.60;;;;;;5085683;28;20067;-67
2021/01/03 07:42:15;;;;;;;6.60;4.25;;;6.40;61.70;;;;;;5086092;28;20128;-67
2021/01/03 07:44:41;;;;;;;9.93;5.30;;;6.50;61.30;;;;;;5085653;28;20040;-67
2021/01/03 07:47:07;;;;;;;;;;;6.50;61.40;;;;;;5086246;28;20043;-67
2021/01/03 07:49:34;;;;;;;7.80;4.35;;;6.50;60.90;;;;;;5085616;28;19912;-67
2021/01/03 07:52:10;;;;;;;13.00;4.97;;;6.70;60.50;;;;;;5085464;28;20036;-67
2021/01/03 07:54:36;;;;;;;11.95;5.30;;;6.80;60.50;;;;;;5085339;28;20070;-67
2021/01/03 07:57:06;;;;;;;;;;;6.70;60.80;;;;;;5067680;28;20075;-66
2021/01/03 07:59:32;;;;;;;19.10;9.35;;;6.60;61.60;;;;;;5084684;28;19932;-67
2021/01/03 08:01:58;;;;;;;;;;;6.60;61.70;;;;;;5085920;28;20739;-67
2021/01/03 08:04:28;;;;;;;12.52;7.32;;;6.50;62.30;;;;;;5067360;28;19920;-67
2021/01/03 08:07:09;;;;;;;16.48;9.43;;;6.70;63.40;;;;;;5085056;28;20439;-66
2021/01/03 08:09:35;;;;;;;10.07;5.57;;;6.80;62.50;;;;;;5085000;28;20040;-67
2021/01/03 08:12:03;;;;;;;;;;;6.90;62.50;;;;;;5085479;28;20043;-67
2021/01/03 08:14:33;;;;;;;13.95;7.68;;;6.80;63.00;;;;;;5084995;28;19916;-66
2021/01/03 08:17:00;;;;;;;11.52;6.57;;;6.80;63.20;;;;;;5085571;28;20089;-66
2021/01/03 08:19:26;;;;;;;11.35;4.38;;;6.80;63.50;;;;;;5085415;28;20046;-67
2021/01/03 08:21:55;;;;;;;11.20;5.68;;;6.90;63.40;;;;;;5085221;28;20036;-68
2021/01/03 08:24:21;;;;;;;14.50;7.35;;;6.80;63.40;;;;;;5084903;28;20076;-67
2021/01/03 08:26:53;;;;;;;10.75;5.10;;;6.70;64.80;;;;;;5083332;28;20056;-66
2021/01/03 08:29:23;;;;;;;24.80;11.73;;;6.80;65.10;;;;;;5085235;28;20036;-67
2021/01/03 08:31:54;;;;;;;17.58;9.73;;;6.80;66.10;;;;;;5085767;28;20443;-66
2021/01/03 08:34:28;;;;;;;30.02;18.73;;;6.80;65.90;;;;;;5090825;28;20047;-66
2021/01/03 08:36:54;;;;;;;9.75;5.57;;;6.80;66.00;;;;;;5091731;28;20031;-67
2021/01/03 08:39:23;;;;;;;12.60;5.55;;;6.80;66.10;;;;;;5091656;28;20055;-67
2021/01/03 08:42:05;;;;;;;9.80;4.32;;;6.80;66.40;;;;;;5091712;28;20035;-67
2021/01/03 08:44:46;;;;;;;9.27;5.45;;;6.90;66.20;;;;;;5091680;28;20032;-67
2021/01/03 08:47:19;;;;;;;9.55;4.57;;;6.80;66.40;;;;;;5089674;28;20035;-67
2021/01/03 08:49:44;;;;;;;12.25;5.35;;;6.90;66.10;;;;;;5091793;28;20046;-67
2021/01/03 08:52:21;;;;;;;;;;;7.00;65.90;;;;;;5073719;28;20495;-67
2021/01/03 08:54:50;;;;;;;15.43;5.97;;;6.90;65.90;;;;;;5088727;28;20627;-67
2021/01/03 08:57:18;;;;;;;9.88;5.68;;;7.00;66.30;;;;;;5087326;28;20440;-67
2021/01/03 08:59:50;;;;;;;10.50;5.80;;;6.90;66.70;;;;;;5091900;28;20109;-66
2021/01/03 09:02:22;;;;;;;12.30;5.68;;;6.90;66.60;;;;;;5091875;28;20040;-66
2021/01/03 09:04:49;;;;;;;11.95;5.72;;;6.90;65.90;;;;;;5091961;28;20571;-66
2021/01/03 09:07:15;;;;;;;9.15;4.60;;;6.80;66.80;;;;;;5091216;28;20028;-66
2021/01/03 09:09:45;;;;;;;;;;;6.80;67.30;;;;;;5088353;28;20051;-67
2021/01/03 09:12:12;;;;;;;17.17;8.02;;;6.90;67.90;;;;;;5091453;28;20332;-67
2021/01/03 09:14:51;;;;;;;19.95;10.18;;;6.90;68.80;;;;;;5091607;28;20044;-67
2021/01/03 09:17:28;;;;;;;13.20;7.55;;;6.70;69.90;;;;;;5091629;28;20090;-66
2021/01/03 09:20:27;;;;;;;12.95;5.78;;;6.80;70.60;;;;;;5091249;28;20086;-66
2021/01/03 09:22:55;;;;;;;15.98;6.95;;;6.70;70.90;;;;;;5091056;28;20048;-68
2021/01/03 09:25:36;;;;;;;11.93;6.85;;;6.70;70.40;;;;;;5091519;28;20052;-67
2021/01/03 09:28:35;;;;;;;12.15;6.07;;;6.70;70.60;;;;;;5073195;28;20040;-67
2021/01/03 09:31:13;;;;;;;13.32;6.88;;;6.60;70.40;;;;;;5091418;28;20412;-68
2021/01/03 09:33:41;;;;;;;16.85;8.52;;;6.70;71.90;;;;;;5087871;28;20801;-66
2021/01/03 09:36:25;;;;;;;15.65;7.55;;;6.70;72.80;;;;;;5091154;28;20036;-66
2021/01/03 09:39:16;;;;;;;11.90;6.15;;;6.80;73.40;;;;;;5090848;28;20032;-66
2021/01/03 09:41:58;;;;;;;13.80;8.40;;;6.90;72.30;;;;;;5091073;28;20051;-66
2021/01/03 09:44:57;;;;;;;17.85;10.73;;;6.90;72.10;;;;;;5068428;28;20040;-68
2021/01/03 09:47:22;;;;;;;19.70;7.50;;;6.90;72.20;;;;;;5064102;28;20052;-69
2021/01/03 09:49:52;;;;;;;;;;;6.80;72.00;;;;;;5070619;28;20058;-67
2021/01/03 09:52:18;;;;;;;11.10;5.88;;;7.00;71.50;;;;;;5087468;28;20662;-66
2021/01/03 09:54:43;;;;;;;;;;;7.10;71.10;;;;;;5088283;28;20043;-66
2021/01/03 09:57:27;;;;;;;11.82;5.82;;;7.20;71.20;;;;;;5087838;28;20055;-67
2021/01/03 09:59:57;;;;;;;17.33;6.03;;;7.10;72.30;;;;;;5088102;28;20048;-67
2021/01/03 10:02:24;;;;;;;13.52;7.18;;;7.10;72.00;;;;;;5087672;28;20415;-68
2021/01/03 10:04:50;;;;;;;15.43;5.95;;;7.20;72.10;;;;;;5087863;28;20028;-66
2021/01/03 10:07:21;;;;;;;;;;;7.30;71.70;;;;;;5087784;28;20107;-67
2021/01/03 10:09:59;;;;;;;18.15;8.52;;;7.30;71.80;;;;;;5087572;28;19916;-68
2021/01/03 10:12:28;;;;;;;10.82;5.40;;;7.20;72.50;;;;;;5087766;28;20424;-68
2021/01/03 10:15:25;;;;;;;11.63;6.28;;;7.30;72.50;;;;;;5087743;28;20400;-68
2021/01/03 10:18:00;;;;;;;12.93;6.63;;;7.20;72.80;;;;;;5087670;28;20063;-68
2021/01/03 10:20:50;;;;;;;11.45;5.70;;;7.20;73.40;;;;;;5087238;28;20038;-68
2021/01/03 10:23:36;;;;;;;14.88;6.60;;;7.40;72.70;;;;;;5083088;28;20107;-67
2021/01/03 10:26:25;;;;;;;16.53;8.40;;;7.40;73.00;;;;;;5087621;28;20040;-66
2021/01/03 10:28:51;;;;;;;20.13;8.85;;;7.40;72.80;;;;;;5084755;28;20111;-67
2021/01/03 10:31:17;;;;;;;;;;;7.20;73.90;;;;;;5084414;28;20486;-66
2021/01/03 10:33:43;;;;;;;15.77;7.10;;;7.30;73.30;;;;;;5069049;28;20426;-66
2021/01/03 10:36:08;;;;;;;;;;;7.30;73.80;;;;;;5087349;28;20050;-66
2021/01/03 10:38:34;;;;;;;21.83;9.00;;;7.30;74.30;;;;;;5067964;28;19955;-67
2021/01/03 10:41:00;;;;;;;;;;;7.20;74.40;;;;;;5087842;28;20085;-66
2021/01/03 10:43:25;;;;;;;13.70;5.95;;;7.40;74.00;;;;;;5086810;28;20088;-66
2021/01/03 10:45:51;;;;;;;;;;;7.30;74.00;;;;;;5087408;28;20042;-67
2021/01/03 10:48:16;;;;;;;11.90;6.72;;;7.20;74.80;;;;;;5085142;28;19916;-68
2021/01/03 10:50:42;;;;;;;;;;;7.20;75.20;;;;;;5083638;28;20047;-66
2021/01/03 10:53:07;;;;;;;18.08;10.27;;;7.20;74.90;;;;;;5086997;28;20020;-68
2021/01/03 10:55:33;;;;;;;13.75;7.05;;;7.10;75.70;;;;;;5085643;28;20047;-68
2021/01/03 10:57:59;;;;;;;;;;;7.20;75.60;;;;;;5087530;28;20055;-68
2021/01/03 11:00:25;;;;;;;15.30;5.90;;;7.20;75.40;;;;;;5068411;28;20277;-67
2021/01/03 11:02:50;;;;;;;;;;;7.10;75.90;;;;;;5084573;28;20051;-69
2021/01/03 11:05:18;;;;;;;11.00;5.35;;;7.30;75.30;;;;;;5085770;28;19928;-69
2021/01/03 11:07:43;;;;;;;10.73;5.50;;;7.30;75.10;;;;;;5066387;28;20032;-66
2021/01/03 11:10:10;;;;;;;;;;;7.20;75.50;;;;;;5083343;28;20035;-67
2021/01/03 11:12:36;;;;;;;11.73;6.13;;;7.20;75.50;;;;;;5086050;28;20312;-67
2021/01/03 11:15:02;;;;;;;;;;;7.20;75.90;;;;;;5087198;28;20047;-66
2021/01/03 11:17:28;;;;;;;10.65;6.28;;;7.30;75.80;;;;;;5083112;28;19943;-67
2021/01/03 11:19:53;;;;;;;;;;;7.10;76.30;;;;;;5068608;28;20046;-67
2021/01/03 11:22:19;;;;;;;11.90;6.60;;;7.20;76.50;;;;;;5085829;28;19948;-68
2021/01/03 11:24:45;;;;;;;8.88;5.03;;;7.20;76.00;;;;;;5085880;28;20042;-67
2021/01/03 11:27:14;;;;;;;14.15;7.75;;;7.20;76.20;;;;;;5079669;28;20561;-68
2021/01/03 11:29:41;;;;;;;11.35;6.03;;;7.30;76.70;;;;;;5085955;28;20147;-66
2021/01/03 11:32:13;;;;;;;16.85;8.63;;;7.50;75.70;;;;;;5068013;28;20071;-67
2021/01/03 11:34:38;;;;;;;21.35;6.97;;;7.60;75.40;;;;;;5086481;28;20047;-67
2021/01/03 11:37:06;;;;;;;;;;;7.70;75.00;;;;;;5081820;28;20504;-68
2021/01/03 11:39:32;;;;;;;;;;;7.70;73.90;;;;;;5086400;28;20412;-67
2021/01/03 11:42:00;;;;;;;11.05;5.10;;;7.80;73.10;;;;;;5066110;28;19912;-67
2021/01/03 11:44:25;;;;;;;11.50;4.28;;;7.80;73.70;;;;;;5084669;28;20024;-65
2021/01/03 11:46:58;;;;;;;;;;;7.70;74.20;;;;;;5085836;28;20044;-66
2021/01/03 11:49:24;;;;;;;15.60;7.00;;;7.60;74.20;;;;;;5080594;28;20006;-67
2021/01/03 11:51:49;;;;;;;;;;;7.50;75.00;;;;;;5085199;28;20660;-68
2021/01/03 11:54:15;;;;;;;11.52;7.18;;;7.30;74.80;;;;;;5062944;28;20308;-66
2021/01/03 11:56:41;;;;;;;;;;;7.20;76.10;;;;;;5085311;28;20051;-67
2021/01/03 11:59:06;;;;;;;11.80;6.88;;;7.10;76.20;;;;;;5085076;28;20304;-67
2021/01/03 12:01:32;;;;;;;17.90;13.38;;;7.00;76.60;;;;;;5085679;28;20032;-67
2021/01/03 12:03:57;;;;;;;;;;;7.00;76.90;;;;;;5085969;28;20052;-68
2021/01/03 12:06:24;;;;;;;8.32;5.00;;;7.20;75.50;;;;;;5084660;28;19919;-66
2021/01/03 12:08:50;;;;;;;11.57;7.25;;;7.20;75.70;;;;;;5085598;28;20035;-67
2021/01/03 12:11:20;;;;;;;11.07;7.35;;;7.20;75.70;;;;;;5084994;28;20036;-66
2021/01/03 12:13:49;;;;;;;14.38;7.03;;;7.30;75.60;;;;;;5083076;28;20039;-66
2021/01/03 12:16:17;;;;;;;14.45;7.32;;;7.20;75.50;;;;;;5066946;28;20050;-67
2021/01/03 12:18:43;;;;;;;10.93;5.63;;;7.20;75.40;;;;;;5083327;28;20556;-66
2021/01/03 12:21:09;;;;;;;12.23;7.15;;;7.20;75.00;;;;;;5084960;28;20505;-67
2021/01/03 12:23:34;;;;;;;;;;;7.20;75.00;;;;;;5085583;28;20077;-67
2021/01/03 12:26:00;;;;;;;10.15;5.22;;;7.20;75.30;;;;;;5084772;28;19943;-68
2021/01/03 12:28:25;;;;;;;9.38;5.65;;;7.40;74.40;;;;;;5064250;28;20036;-68
2021/01/03 12:30:51;;;;;;;;;;;7.50;73.90;;;;;;5085593;28;20460;-66
2021/01/03 12:33:16;;;;;;;14.80;8.00;;;7.50;74.20;;;;;;5085157;28;19939;-67
2021/01/03 12:35:42;;;;;;;;;;;7.40;73.90;;;;;;5085487;28;20075;-66
2021/01/03 12:38:08;;;;;;;13.73;6.82;;;7.40;73.30;;;;;;5084860;28;19912;-66
2021/01/03 12:40:33;;;;;;;;;;;7.50;73.30;;;;;;5085247;28;20044;-65
2021/01/03 12:43:00;;;;;;;8.57;4.30;;;7.60;72.40;;;;;;5085187;28;19994;-66
2021/01/03 12:45:26;;;;;;;11.65;4.85;;;7.70;71.50;;;;;;5083708;28;20035;-67
2021/01/03 12:47:51;;;;;;;;;;;7.60;72.00;;;;;;5085060;28;20058;-67
2021/01/03 12:50:17;;;;;;;8.93;5.32;;;7.40;72.50;;;;;;5084689;28;19912;-66
2021/01/03 12:52:42;;;;;;;10.85;5.40;;;7.50;71.60;;;;;;5064461;28;20044;-67
2021/01/03 12:55:08;;;;;;;;;;;7.50;71.00;;;;;;5085024;28;20039;-67
2021/01/03 12:57:34;;;;;;;13.25;5.88;;;7.50;71.10;;;;;;5083270;28;19981;-67
2021/01/03 12:59:59;;;;;;;;;;;7.50;71.10;;;;;;5067004;28;20055;-69
2021/01/03 13:02:25;;;;;;;18.77;7.85;;;7.40;70.90;;;;;;5082298;28;19923;-67
2021/01/03 13:04:51;;;;;;;14.48;6.70;;;7.30;71.30;;;;;;5062617;28;20041;-66
2021/01/03 13:07:16;;;;;;;;;;;7.20;72.40;;;;;;5085177;28;20082;-67
2021/01/03 13:09:43;;;;;;;12.30;5.93;;;7.20;73.20;;;;;;5084988;28;19912;-67
2021/01/03 13:12:09;;;;;;;10.40;5.60;;;7.10;73.40;;;;;;5082562;28;20044;-66
2021/01/03 13:14:34;;;;;;;;;;;7.20;73.10;;;;;;5082681;28;20510;-66
2021/01/03 13:17:00;;;;;;;13.18;6.65;;;7.20;73.60;;;;;;5083519;28;20286;-67
2021/01/03 13:19:26;;;;;;;;;;;7.10;73.90;;;;;;5085025;28;20612;-66
2021/01/03 13:21:51;;;;;;;12.35;7.03;;;7.10;73.50;;;;;;5086144;28;20437;-67
2021/01/03 13:24:17;;;;;;;;;;;7.00;73.60;;;;;;5085436;28;20549;-67
2021/01/03 13:26:43;;;;;;;18.48;8.75;;;7.10;73.10;;;;;;5086967;28;20303;-66
2021/01/03 13:29:08;;;;;;;;;;;7.00;73.10;;;;;;5087327;28;20039;-67
2021/01/03 13:31:34;;;;;;;39.08;20.35;;;6.80;73.80;;;;;;5087200;28;19951;-66
2021/01/03 13:34:00;;;;;;;;;;;6.70;74.10;;;;;;5087397;28;20115;-66